createdAt,value
2023-04-20T00:04:11.946Z,2.0
2023-04-20T00:08:48.452Z,2.0
2023-04-20T00:13:54.822Z,2.0
2023-04-20T00:19:11.208Z,3.2
2023-04-20T00:24:17.646Z,3.2
2023-04-20T00:29:24.088Z,1.0
2023-04-20T00:34:34.499Z,1.9
2023-04-20T00:39:36.892Z,1.3
2023-04-20T00:44:33.214Z,1.2
2023-04-20T00:49:39.601Z,1.2
2023-04-20T00:54:55.037Z,1.1
2023-04-20T00:59:52.484Z,1.5
2023-04-20T01:05:09.096Z,1.1
2023-04-20T01:10:05.592Z,1.3
2023-04-20T01:15:49.642Z,1.6
2023-04-20T01:20:31.926Z,2.3
2023-04-20T01:25:58.372Z,1.4
2023-04-20T01:30:48.708Z,1.3
2023-04-20T01:35:55.685Z,1.3
2023-04-20T01:40:58.081Z,1.6
2023-04-20T01:46:12.133Z,1.2
2023-04-20T01:51:14.447Z,1.2
2023-04-20T01:56:24.841Z,1.6
2023-04-20T02:01:51.280Z,1.4
2023-04-20T02:06:33.708Z,2.2
2023-04-20T02:11:40.101Z,2.2
2023-04-20T02:17:06.572Z,1.7
2023-04-20T02:21:42.830Z,1.5
2023-04-20T02:26:49.212Z,2.1
2023-04-20T02:31:55.704Z,1.2
2023-04-20T02:37:12.167Z,1.7
2023-04-20T02:42:38.584Z,1.5
2023-04-20T02:47:24.983Z,1.3
2023-04-20T02:52:31.413Z,2.5
2023-04-20T02:57:27.763Z,2.0
2023-04-20T03:02:44.287Z,1.4
2023-04-20T03:08:14.854Z,1.5
2023-04-20T03:12:57.225Z,2.3
2023-04-20T03:18:03.692Z,1.6
2023-04-20T03:23:10.132Z,2.6
2023-04-20T03:28:16.567Z,2.4
2023-04-20T03:33:22.912Z,1.6
2023-04-20T03:38:29.293Z,2.0
2023-04-20T03:43:59.738Z,1.6
2023-04-20T03:49:10.104Z,2.2
2023-04-20T03:53:48.444Z,1.6
2023-04-20T03:59:09.068Z,2.3
2023-04-20T04:04:01.737Z,1.7
2023-04-20T04:08:58.149Z,1.5
2023-04-20T04:14:14.646Z,1.4
2023-04-20T04:19:21.045Z,3.3
2023-04-20T04:24:27.389Z,1.0
2023-04-20T04:29:23.784Z,1.8
2023-04-20T04:34:30.190Z,1.8
2023-04-20T04:40:06.739Z,0.9
2023-04-20T04:44:53.104Z,1.8
2023-04-20T04:49:59.473Z,2.2
2023-04-20T04:55:05.902Z,1.9
2023-04-20T05:00:12.263Z,1.9
2023-04-20T05:05:19.365Z,1.8
2023-04-20T05:10:49.809Z,1.9
2023-04-20T05:15:32.293Z,2.0
2023-04-20T05:20:38.558Z,2.2
2023-04-20T05:25:45.031Z,1.2
2023-04-20T05:31:15.655Z,2.1
2023-04-20T05:36:22.100Z,2.0
2023-04-20T05:41:04.434Z,2.3
2023-04-20T05:46:10.935Z,2.0
2023-04-20T05:51:21.252Z,1.7
2023-04-20T05:56:23.586Z,1.1
2023-04-20T06:01:50.028Z,1.7
2023-04-20T06:06:36.381Z,2.7
2023-04-20T06:11:42.736Z,1.8
2023-04-20T06:16:49.231Z,1.8
2023-04-20T06:21:55.667Z,1.8
2023-04-20T06:27:02.007Z,1.7
2023-04-20T06:32:08.413Z,1.4
2023-04-20T06:37:14.789Z,2.1
2023-04-20T06:42:21.139Z,2.5
2023-04-20T06:47:27.518Z,1.6
2023-04-20T06:52:33.923Z,1.9
2023-04-20T06:57:40.432Z,2.2
2023-04-20T07:02:47.093Z,1.8
2023-04-20T07:07:53.336Z,2.1
2023-04-20T07:12:59.706Z,2.3
2023-04-20T07:18:06.231Z,2.1
2023-04-20T07:23:02.667Z,1.7
2023-04-20T07:28:08.969Z,2.2
2023-04-20T07:33:49.424Z,2.0
2023-04-20T07:38:51.806Z,2.3
2023-04-20T07:43:38.115Z,2.6
2023-04-20T07:49:08.640Z,1.3
2023-04-20T07:54:15.053Z,1.9
2023-04-20T07:58:57.357Z,1.6
2023-04-20T08:04:27.985Z,1.2
2023-04-20T08:09:12.598Z,1.8
2023-04-20T08:14:30.566Z,2.8
2023-04-20T08:19:23.138Z,3.6
2023-04-20T08:24:43.273Z,3.0
2023-04-20T08:29:35.780Z,2.7
2023-04-20T08:34:42.175Z,1.7
2023-04-20T08:39:48.551Z,2.1
2023-04-20T08:44:54.979Z,2.0
2023-04-20T08:50:01.322Z,2.7
2023-04-20T08:55:27.845Z,2.9
2023-04-20T09:00:38.266Z,3.4
2023-04-20T09:05:20.611Z,1.5
2023-04-20T09:10:26.949Z,2.3
2023-04-20T09:15:33.345Z,2.8
2023-04-20T09:20:59.767Z,1.6
2023-04-20T09:25:46.066Z,2.6
2023-04-20T09:31:16.510Z,3.0
2023-04-20T09:35:48.828Z,2.6
2023-04-20T09:41:05.353Z,1.5
2023-04-20T09:46:11.609Z,3.3
2023-04-20T09:51:17.978Z,2.8
2023-04-20T09:56:48.463Z,3.1
2023-04-20T10:01:55.979Z,2.8
2023-04-20T10:06:38.222Z,3.0
2023-04-20T10:11:52.615Z,3.9
2023-04-20T10:16:40.240Z,2.8
2023-04-20T10:22:21.480Z,3.1
2023-04-20T10:27:27.864Z,3.1
2023-04-20T10:32:10.217Z,3.1
2023-04-20T10:37:36.609Z,3.4
2023-04-20T10:42:24.060Z,1.9
2023-04-20T10:47:30.490Z,3.9
2023-04-20T10:52:36.827Z,1.9
2023-04-20T10:57:43.200Z,4.9
2023-04-20T11:03:17.448Z,3.3
2023-04-20T11:07:59.544Z,2.3
2023-04-20T11:13:28.277Z,3.4
2023-04-20T11:18:14.741Z,2.4
2023-04-20T11:23:21.158Z,2.9
2023-04-20T11:28:27.564Z,3.6
2023-04-20T11:33:24.078Z,3.7
2023-04-20T11:38:40.382Z,3.2
2023-04-20T11:44:06.749Z,3.4
2023-04-20T11:48:43.181Z,2.8
2023-04-20T11:54:01.187Z,4.3
2023-04-20T11:59:27.744Z,3.7
2023-04-20T12:04:14.418Z,3.5
2023-04-20T12:09:20.764Z,3.6
2023-04-20T12:14:26.860Z,4.3
2023-04-20T12:19:33.286Z,3.5
2023-04-20T12:24:39.684Z,4.1
2023-04-20T12:29:46.220Z,3.2
2023-04-20T12:34:54.182Z,3.9
2023-04-20T12:40:00.567Z,3.5
2023-04-20T12:45:06.899Z,3.7
2023-04-20T12:50:13.292Z,3.7
2023-04-20T12:55:39.740Z,2.7
2023-04-20T13:00:16.117Z,4.5
2023-04-20T13:05:23.554Z,3.4
2023-04-20T13:10:40.063Z,2.9
2023-04-20T13:15:46.504Z,3.3
2023-04-20T13:20:52.848Z,3.4
2023-04-20T13:25:59.231Z,3.4
2023-04-20T13:30:55.668Z,4.6
2023-04-20T13:36:01.963Z,3.7
2023-04-20T13:41:18.361Z,3.2
2023-04-20T13:46:25.104Z,3.5
2023-04-20T13:51:31.249Z,4.3
2023-04-20T13:56:37.673Z,4.0
2023-04-20T14:01:44.152Z,4.1
2023-04-20T14:06:50.408Z,3.6
2023-04-20T14:12:00.808Z,3.4
2023-04-20T14:17:03.199Z,3.0
2023-04-20T14:22:13.555Z,3.0
2023-04-20T14:27:15.944Z,5.0
2023-04-20T14:32:22.393Z,3.4
2023-04-20T14:37:18.728Z,4.7
2023-04-20T14:42:55.150Z,3.9
2023-04-20T14:47:31.487Z,6.2
2023-04-20T14:52:47.878Z,4.5
2023-04-20T14:57:54.357Z,4.2
2023-04-20T15:03:01.036Z,4.1
2023-04-20T15:08:07.127Z,2.2
2023-04-20T15:13:13.531Z,3.3
2023-04-20T15:18:20.002Z,2.9
2023-04-20T15:23:26.322Z,3.0
2023-04-20T15:28:32.881Z,3.0
2023-04-20T15:33:39.282Z,2.7
2023-04-20T15:38:45.649Z,1.4
2023-04-20T15:43:52.055Z,2.9
2023-04-20T15:49:54.568Z,3.5
2023-04-20T15:53:54.887Z,2.2
2023-04-20T15:59:11.290Z,2.5
2023-04-20T16:04:18.105Z,3.9
2023-04-20T16:09:38.114Z,3.6
2023-04-20T16:14:30.444Z,1.8
2023-04-20T16:19:40.822Z,3.7
2023-04-20T16:26:03.372Z,3.8
2023-04-20T16:29:49.599Z,3.4
2023-04-20T16:35:20.036Z,3.2
2023-04-20T16:40:26.552Z,3.5
2023-04-20T16:45:08.878Z,3.1
2023-04-20T16:50:35.277Z,3.6
2023-04-20T16:55:21.632Z,3.3
2023-04-20T17:00:28.093Z,3.2
2023-04-20T17:05:34.366Z,4.4
2023-04-20T17:10:40.900Z,3.3
2023-04-20T17:15:47.294Z,3.8
2023-04-20T17:20:53.671Z,4.0
2023-04-20T17:26:20.078Z,3.6
2023-04-20T17:31:30.541Z,3.9
2023-04-20T17:36:12.805Z,3.1
2023-04-20T17:41:19.312Z,3.2
2023-04-20T17:46:45.763Z,3.8
2023-04-20T17:51:22.053Z,3.8
2023-04-20T17:56:38.450Z,4.3
2023-04-20T18:02:41.113Z,4.2
2023-04-20T18:07:47.318Z,3.4
2023-04-20T18:17:05.550Z,3.7
2023-04-20T18:22:36.000Z,3.8
2023-04-20T18:27:08.335Z,3.2
2023-04-20T18:32:25.035Z,4.2
2023-04-20T18:37:31.494Z,5.9
2023-04-20T18:42:37.916Z,5.0
2023-04-20T18:47:44.356Z,5.4
2023-04-20T18:53:14.753Z,20.3
2023-04-20T18:57:57.112Z,4.7
2023-04-20T19:03:03.703Z,5.4
2023-04-20T19:08:10.018Z,5.0
2023-04-20T19:13:16.419Z,6.5
2023-04-20T19:18:22.786Z,5.3
2023-04-20T19:23:53.281Z,6.3
2023-04-20T19:28:35.663Z,6.7
2023-04-20T19:34:03.633Z,5.1
2023-04-20T19:38:50.178Z,8.1
2023-04-20T19:43:56.677Z,11.8
2023-04-20T19:49:03.043Z,9.0
2023-04-20T19:54:09.429Z,4.4
2023-04-20T19:59:39.872Z,7.6
2023-04-20T20:04:22.302Z,7.2
2023-04-20T20:09:28.661Z,7.0
2023-04-20T20:14:37.184Z,6.3
2023-04-20T20:19:41.535Z,7.4
2023-04-20T20:24:47.916Z,6.8
2023-04-20T20:29:54.261Z,4.2
2023-04-20T20:35:00.702Z,6.2
2023-04-20T20:41:19.227Z,8.0
2023-04-20T20:45:13.438Z,6.5
2023-04-20T20:51:51.046Z,7.3
2023-04-20T20:55:25.269Z,9.7
2023-04-20T21:00:32.656Z,8.6
2023-04-20T21:06:03.088Z,8.0
2023-04-20T21:10:45.464Z,10.1
2023-04-20T21:15:41.775Z,8.6
2023-04-20T21:20:58.172Z,10.1
2023-04-20T21:26:28.629Z,11.0
2023-04-20T21:31:00.891Z,7.8
2023-04-20T21:36:37.414Z,13.9
2023-04-20T21:42:07.907Z,7.7
2023-04-20T21:46:50.183Z,9.6
2023-04-20T21:51:36.624Z,9.8
2023-04-20T21:56:43.076Z,8.4
2023-04-20T22:03:01.733Z,9.2
2023-04-20T22:06:45.835Z,8.1
2023-04-20T22:12:02.333Z,8.0
2023-04-20T22:17:08.621Z,7.7
2023-04-20T22:22:49.168Z,10.7
2023-04-20T22:27:56.527Z,8.8
2023-04-20T22:34:06.128Z,11.1
2023-04-20T22:37:58.374Z,7.6
2023-04-20T22:43:15.756Z,9.0
2023-04-20T22:48:22.122Z,7.1
2023-04-20T22:53:48.570Z,8.0
2023-04-20T22:58:34.905Z,5.9
2023-04-20T23:03:41.445Z,7.9
2023-04-20T23:08:47.781Z,9.1
2023-04-20T23:14:21.825Z,6.8
2023-04-20T23:19:04.136Z,7.5
2023-04-20T23:24:10.508Z,6.5
2023-04-20T23:29:36.990Z,8.0
2023-04-20T23:34:13.258Z,6.4
2023-04-20T23:39:29.822Z,6.4
2023-04-20T23:44:36.228Z,7.3
2023-04-20T23:49:42.613Z,6.8
2023-04-20T23:54:48.960Z,7.4
2023-04-20T23:59:55.349Z,7.0
